OOLO2: Oologah Lake

Data processed at Tue May 21 2019 22:10


All information presented herein is the property of the government of the United States of America and may be revised or deleted at any time without prior notice.
Dissemination of this information without the expressed written consent of the Public Affairs Office, Tulsa District U.S. Army Corps of Engineers is strictly prohibited.
These data are gathered electronically and, as presented, have not undergone any form of quality control. These data are not guaranteed to be valid or correct.
Go to home page.
Go to station list.
Go to home page.

Upstream stations:

Downstream station:
Previous Day
Next Day
Current Day
    
SHEF ID:       OOLO2     Oologah Lake
STATION TYPE:  RESERVOIR
Flood Pool:  Bottom =   638.00, Top =   661.00

               PRECIP     STAGE  RIV-FLOW ELEVATION   STORAGE   TW-ELEV    INFLOW   RELEASE  AIR-TEMP  WIND-DIRWIND-SPEED REL-HUMID SOLAR-RAD   VOLTAGE  BAT-LOAD
                   in        ft       cfs        ft     ac-ft        ft       cfs       cfs         F       deg       mph         %      W/m2      volt      volt
              Ccp-Rev   Ccp-Rev   Ccp-Rev   Ccp-Rev   Ccp-Rev   Ccp-Rev  Rev-Regi  Rev-Regi   Ccp-Rev   Ccp-Rev   Ccp-Rev   Ccp-Rev   Ccp-Rev   Ccp-Rev   Ccp-Rev
(US/Central)
05/21 00:00      0.04     21.95     15473    654.85   1087124      ----    120161     10000     60.17    352.20     17.30    100.09      0.00     13.38     13.37
05/21 01:00      0.16     22.79     17171    655.06   1097069      ----     98130     10000     60.78    358.30     10.90    100.09      0.00     13.38     13.37
05/21 02:00      0.57     22.86     17316    655.32   1109637      ----    118400     10000     60.71      8.00     11.90    100.09      0.00     13.38     13.37
05/21 03:00      0.03     22.00     15572    655.43   1114955      ----    105675         0     62.26     21.90     12.40    100.08      0.00     13.38     13.37
05/21 04:00      0.00     21.92     15414    655.61   1123656      ----     92420         0     64.02     21.40     11.30     97.74      0.00     13.38     13.37
05/21 05:00      0.02     21.88     15335    655.77   1131390      ----     78892         0     64.90     38.10     12.30     91.85      0.00     13.38     13.37
05/21 06:00      0.00     21.59     14768    655.87   1136224      ----     89604         0     65.55     43.00     15.10     87.04      0.00     13.38     13.37
05/21 07:00      0.38     21.03     13697    656.02   1143502      ----     93461         0     66.72     26.30     13.80     87.09      0.00     13.38     13.29
05/21 08:00      0.40     20.53     12769    656.19   1151954      ----    101827     13233     61.74    270.10      8.70    100.09      0.00     13.55     13.29
05/21 09:00      0.14     20.07     11938    656.37   1160903      ----    113214     12353     61.93     54.40      1.70    100.09      0.40     13.55     13.29
05/21 10:00      0.08     19.70     11286    656.57   1170846      ----    116373     11612     62.31     29.80      8.10    100.09     13.90     13.56     13.29
05/21 11:00      0.00     19.34     10667    656.74   1179297      ----    110921     10976     62.49     60.20      6.40    100.09     71.70     13.55     13.13
05/21 12:00      0.00     18.95     10011    656.89   1186754      ----    102212     10339     63.68     72.90      5.90    100.09    178.30     13.55     13.29
05/21 13:00      0.02     18.56      9373    657.02   1193246      ----     93584      9692     65.46    118.90      5.60     99.31    132.40     13.55     13.29
05/21 14:00      0.00     18.14      8705    657.13   1198870      ----     83606      9039     66.00    161.10      6.20     97.12    109.70     13.53     13.29
05/21 15:00      0.00     17.69      8011    657.26   1205516      ----     82213      8358     68.81    159.10      6.60     86.80    712.20     13.55     13.29
05/21 16:00      0.00     17.24      7336    657.35   1210118      ----     81912      7674     71.73    164.20      8.10     68.65    793.30     13.55     13.29
05/21 17:00      0.00     16.77      6651    657.49   1217276      ----     86177      6993     73.60    173.90     10.90     54.87    622.70     13.54     13.29
05/21 18:00      0.00     16.28      5967    657.62   1223922      ----     87969      6309     74.98    183.10     11.50     38.02    522.40     13.54     13.29
05/21 19:00      0.00     15.75      5262    657.77   1231592      ----     93704      5615     74.91    179.90     10.90     34.93    313.00     13.55     13.29
05/21 20:00      0.00     15.25      4631    657.92   1239261      ----     94532      4947     73.45    165.10      6.00     38.72    102.30     13.55     13.29
05/21 21:00      0.00     14.78      4069    658.06   1246507      ----     94447      4350     70.84    145.20      4.60     44.86      1.00     13.38     13.29
05/21 22:00      0.00     14.39      3626    658.15   1251240      ----      ----      3848     68.88    138.20      5.50     59.27      0.00     13.38     13.29
05/21 23:00      ----      ----      ----      ----      ----      ----      ----      ----      ----      ----      ----      ----      ----      ----      ----